Time;durP1;ratioP1;P1;durP2;ratioP2;P2;SDS_P1;SDS_P2;PMS_P1;PMS_P2;Temp;Humidity;BMP_temperature;BMP_pressure;BME280_temperature;BME280_humidity;BME280_pressure;Samples;Min_cycle;Max_cycle;Signal;HPM_P1;HPM_P2
2021/08/10 00:01:57;;;;;;;5.25;2.83;;;;;;;14.29;100.00;100198.41;5056165;28;20060;-68
2021/08/10 00:04:23;;;;;;;8.15;2.80;;;;;;;14.31;100.00;100193.75;5056294;28;20052;-66
2021/08/10 00:06:50;;;;;;;6.15;2.67;;;;;;;14.26;100.00;100186.06;5056222;28;20049;-68
2021/08/10 00:09:17;;;;;;;7.85;2.78;;;;;;;14.38;100.00;100196.81;5038331;28;20065;-69
2021/08/10 00:11:43;;;;;;;5.82;2.55;;;;;;;14.37;100.00;100197.78;5037869;28;20426;-67
2021/08/10 00:14:10;;;;;;;5.63;2.58;;;;;;;14.34;100.00;100190.00;5056012;28;20049;-69
2021/08/10 00:16:38;;;;;;;8.15;2.83;;;;;;;14.40;100.00;100195.72;5056141;28;20056;-69
2021/08/10 00:19:06;;;;;;;5.20;2.75;;;;;;;14.34;100.00;100181.94;5018669;28;20053;-67
2021/08/10 00:21:32;;;;;;;8.80;3.00;;;;;;;14.36;100.00;100199.66;5025737;28;20049;-67
2021/08/10 00:23:59;;;;;;;5.57;2.90;;;;;;;14.29;100.00;100201.09;5035618;28;20049;-69
2021/08/10 00:26:26;;;;;;;4.63;2.53;;;;;;;14.29;100.00;100182.28;5035673;28;20061;-68
2021/08/10 00:28:52;;;;;;;5.75;2.60;;;;;;;14.28;100.00;100187.78;5035725;28;20053;-67
2021/08/10 00:31:19;;;;;;;9.13;2.83;;;;;;;14.25;100.00;100184.34;5018201;28;20406;-69
2021/08/10 00:33:46;;;;;;;4.97;2.50;;;;;;;14.25;100.00;100187.03;5035678;28;20053;-67
2021/08/10 00:36:12;;;;;;;6.32;3.03;;;;;;;14.24;100.00;100189.84;5041004;28;20041;-67
2021/08/10 00:38:40;;;;;;;4.78;2.80;;;;;;;14.20;100.00;100186.53;5038093;28;20098;-67
2021/08/10 00:41:06;;;;;;;6.88;2.70;;;;;;;14.22;100.00;100181.88;5055228;28;20083;-67
2021/08/10 00:43:34;;;;;;;9.20;3.60;;;;;;;14.29;100.00;100174.25;5055505;28;20374;-67
2021/08/10 00:46:04;;;;;;;5.60;2.83;;;;;;;14.31;100.00;100171.41;5055498;28;20059;-67
2021/08/10 00:48:31;;;;;;;6.55;2.88;;;;;;;14.29;100.00;100170.69;5055157;28;20092;-67
2021/08/10 00:50:58;;;;;;;6.95;2.58;;;;;;;14.23;100.00;100167.50;5055366;28;20049;-67
2021/08/10 00:53:25;;;;;;;7.53;2.63;;;;;;;14.11;100.00;100145.13;5037799;28;20048;-67
2021/08/10 00:55:53;;;;;;;5.15;2.40;;;;;;;14.29;100.00;100162.63;5054935;28;20055;-67
2021/08/10 00:58:21;;;;;;;8.52;3.33;;;;;;;14.29;100.00;100160.81;5055026;28;20052;-67
2021/08/10 01:00:48;;;;;;;5.43;2.55;;;;;;;14.33;100.00;100161.44;5054922;28;20110;-67
2021/08/10 01:03:15;;;;;;;5.75;2.97;;;;;;;14.35;100.00;100159.47;5054945;28;20053;-67
2021/08/10 01:05:48;;;;;;;5.50;2.78;;;;;;;14.30;100.00;100159.84;5055048;28;20057;-67
2021/08/10 01:08:33;;;;;;;4.82;2.28;;;;;;;14.36;100.00;100162.06;5037750;28;20045;-67
2021/08/10 01:11:37;;;;;;;3.28;2.30;;;;;;;14.44;100.00;100160.59;5055023;28;20365;-67
2021/08/10 01:15:00;;;;;;;4.90;2.58;;;;;;;14.43;100.00;100159.75;5054598;28;20347;-67
2021/08/10 01:17:43;;;;;;;4.82;2.30;;;;;;;14.58;100.00;100156.81;5031641;28;20409;-67
2021/08/10 01:20:21;;;;;;;4.35;2.75;;;;;;;14.52;100.00;100148.31;5054577;28;20350;-67
2021/08/10 01:22:50;;;;;;;3.72;2.08;;;;;;;14.49;100.00;100158.44;5053575;28;20110;-66
2021/08/10 01:25:26;;;;;;;5.05;2.25;;;;;;;14.48;100.00;100157.56;5054629;28;20059;-67
2021/08/10 01:28:12;;;;;;;4.18;2.58;;;;;;;14.49;100.00;100158.44;5036818;28;20045;-67
2021/08/10 01:30:48;;;;;;;5.63;2.58;;;;;;;14.47;100.00;100155.84;5054429;28;20123;-66
2021/08/10 01:33:16;;;;;;;5.45;2.25;;;;;;;14.50;100.00;100162.81;5054908;28;20053;-67
2021/08/10 01:35:43;;;;;;;5.07;2.42;;;;;;;14.50;100.00;100150.22;5037113;28;20057;-67
2021/08/10 01:38:10;;;;;;;8.00;2.28;;;;;;;14.51;100.00;100153.78;5036864;28;20449;-67
2021/08/10 01:40:36;;;;;;;7.00;2.47;;;;;;;14.50;100.00;100149.38;5054454;28;20056;-67
2021/08/10 01:43:05;;;;;;;6.30;2.30;;;;;;;14.51;100.00;100146.56;5054360;28;20045;-67
2021/08/10 01:45:37;;;;;;;12.82;2.75;;;;;;;14.52;100.00;100148.31;5054306;28;20051;-67
2021/08/10 01:48:07;;;;;;;7.43;2.60;;;;;;;14.54;100.00;100153.53;5034801;28;20041;-67
2021/08/10 01:50:34;;;;;;;6.97;2.50;;;;;;;14.47;100.00;100145.09;5034383;28;20402;-67
2021/08/10 01:53:01;;;;;;;7.13;2.75;;;;;;;14.58;100.00;100159.50;5034536;28;20053;-67
2021/08/10 01:55:28;;;;;;;6.55;2.40;;;;;;;14.54;100.00;100169.63;5034301;28;20115;-67
2021/08/10 01:57:57;;;;;;;6.90;2.70;;;;;;;14.53;100.00;100171.50;5034302;28;20049;-67
2021/08/10 02:00:26;;;;;;;4.63;2.55;;;;;;;14.51;100.00;100178.78;5034510;28;20049;-67
2021/08/10 02:02:53;;;;;;;6.30;2.45;;;;;;;14.55;100.00;100194.69;5034200;28;20136;-67
2021/08/10 02:05:24;;;;;;;4.85;2.55;;;;;;;14.58;100.00;100199.81;5034529;28;20421;-67
2021/08/10 02:07:51;;;;;;;5.15;2.00;;;;;;;14.74;100.00;100210.25;5034382;28;20045;-67
2021/08/10 02:10:18;;;;;;;8.60;2.60;;;;;;;14.72;100.00;100218.41;5034708;28;20127;-66
2021/08/10 02:12:45;;;;;;;7.00;2.40;;;;;;;14.65;100.00;100225.22;5034691;28;20049;-66
2021/08/10 02:15:12;;;;;;;8.73;2.67;;;;;;;14.62;100.00;100223.66;5034492;28;20104;-67
2021/08/10 02:17:38;;;;;;;3.83;2.50;;;;;;;14.57;100.00;100230.31;5034314;28;20077;-67
2021/08/10 02:20:06;;;;;;;3.83;2.42;;;;;;;14.49;100.00;100237.16;5034464;28;20099;-67
2021/08/10 02:22:35;;;;;;;5.50;2.67;;;;;;;14.43;100.00;100244.81;5040829;28;20054;-67
2021/08/10 02:25:07;;;;;;;9.40;2.65;;;;;;;14.42;100.00;100243.13;5018660;28;20364;-66
2021/08/10 02:27:45;;;;;;;4.32;2.40;;;;;;;14.36;100.00;100239.06;5033879;28;20054;-67
2021/08/10 02:30:15;;;;;;;4.05;2.30;;;;;;;14.31;100.00;100231.34;5034119;28;20057;-67
2021/08/10 02:32:44;;;;;;;3.97;2.10;;;;;;;14.16;100.00;100219.09;5034372;28;20057;-67
2021/08/10 02:35:15;;;;;;;4.43;2.10;;;;;;;14.22;100.00;100238.25;5036462;28;20050;-66
2021/08/10 02:37:43;;;;;;;5.20;2.95;;;;;;;14.20;100.00;100234.84;5020496;28;20041;-67
2021/08/10 02:40:14;;;;;;;7.85;2.30;;;;;;;14.16;100.00;100225.31;5038056;28;20061;-67
2021/08/10 02:42:43;;;;;;;7.15;2.40;;;;;;;14.11;100.00;100219.44;5037724;28;20051;-67
2021/08/10 02:45:10;;;;;;;6.57;2.28;;;;;;;14.12;100.00;100223.84;5020185;28;20080;-67
2021/08/10 02:47:37;;;;;;;7.65;2.95;;;;;;;14.08;100.00;100222.34;5053466;28;20132;-67
2021/08/10 02:50:05;;;;;;;4.70;2.40;;;;;;;14.09;100.00;100226.75;5056191;28;20048;-67
2021/08/10 02:52:32;;;;;;;7.15;3.20;;;;;;;14.09;100.00;100222.25;5028894;28;20385;-67
2021/08/10 02:54:59;;;;;;;3.85;2.53;;;;;;;14.09;100.00;100221.38;5033305;28;20103;-67
2021/08/10 02:57:38;;;;;;;6.18;2.55;;;;;;;14.10;100.00;100201.59;5037393;28;20427;-67
2021/08/10 03:00:11;;;;;;;6.25;2.58;;;;;;;14.12;100.00;100208.56;5051216;28;20390;-67
2021/08/10 03:02:42;;;;;;;7.22;2.80;;;;;;;14.11;100.00;100214.91;5057522;28;20053;-67
2021/08/10 03:05:12;;;;;;;9.73;2.72;;;;;;;14.13;100.00;100204.91;5057383;28;20132;-68
2021/08/10 03:07:44;;;;;;;5.97;2.55;;;;;;;14.16;100.00;100217.25;5051310;28;20727;-67
2021/08/10 03:10:13;;;;;;;11.80;3.15;;;;;;;14.16;100.00;100211.88;5037025;28;20053;-67
2021/08/10 03:12:46;;;;;;;4.03;2.33;;;;;;;14.06;100.00;100206.34;5036971;28;20061;-67
2021/08/10 03:15:14;;;;;;;7.72;3.88;;;;;;;14.02;100.00;100196.84;5037368;28;20053;-67
2021/08/10 03:17:43;;;;;;;6.88;3.20;;;;;;;14.01;100.00;100186.22;5019740;28;20050;-67
2021/08/10 03:20:11;;;;;;;6.07;3.05;;;;;;;14.02;100.00;100171.81;5036946;28;20057;-67
2021/08/10 03:22:41;;;;;;;4.65;2.97;;;;;;;14.05;100.00;100166.22;5055056;28;20103;-67
2021/08/10 03:25:12;;;;;;;6.05;2.80;;;;;;;14.04;100.00;100165.38;5047733;28;20084;-67
2021/08/10 03:27:40;;;;;;;6.65;3.17;;;;;;;14.05;100.00;100171.59;5019293;28;20072;-67
2021/08/10 03:30:08;;;;;;;6.78;2.70;;;;;;;14.02;100.00;100171.81;5037089;28;20056;-67
2021/08/10 03:32:36;;;;;;;6.35;3.03;;;;;;;13.95;100.00;100158.84;5019069;28;20057;-67
2021/08/10 03:35:04;;;;;;;6.38;3.50;;;;;;;14.00;100.00;100166.56;5036607;28;20108;-67
2021/08/10 03:37:31;;;;;;;7.25;3.40;;;;;;;14.02;100.00;100171.81;5036693;28;20057;-67
2021/08/10 03:40:00;;;;;;;5.22;3.42;;;;;;;14.02;100.00;100164.63;5036622;28;20049;-67
2021/08/10 03:42:27;;;;;;;7.65;3.05;;;;;;;13.99;100.00;100163.03;5036627;28;20101;-67
2021/08/10 03:44:54;;;;;;;7.40;4.10;;;;;;;13.99;100.00;100154.13;5036344;28;20481;-67
2021/08/10 03:47:21;;;;;;;15.38;3.50;;;;;;;13.99;100.00;100154.97;5031501;28;20126;-66
2021/08/10 03:49:51;;;;;;;6.90;3.58;;;;;;;13.92;100.00;100132.28;5055987;28;20434;-67
2021/08/10 03:52:18;;;;;;;6.65;3.33;;;;;;;13.94;100.00;100138.38;5055913;28;20064;-66
2021/08/10 03:54:45;;;;;;;4.30;3.20;;;;;;;13.89;100.00;100148.59;5038680;28;20060;-67
2021/08/10 03:57:17;;;;;;;5.75;3.20;;;;;;;13.88;100.00;100146.88;5056070;28;20049;-67
2021/08/10 03:59:51;;;;;;;9.05;4.00;;;;;;;13.83;100.00;100144.56;5043004;28;20439;-67
2021/08/10 04:02:19;;;;;;;7.05;3.50;;;;;;;13.78;100.00;100148.56;5035050;28;20103;-67
2021/08/10 04:04:49;;;;;;;6.32;3.15;;;;;;;13.70;100.00;100144.63;5035835;28;20115;-67
2021/08/10 04:07:16;;;;;;;5.25;3.38;;;;;;;13.61;100.00;100131.88;5034665;28;20438;-67
2021/08/10 04:09:43;;;;;;;6.70;3.83;;;;;;;13.66;100.00;100135.09;5034718;28;20087;-67
2021/08/10 04:12:11;;;;;;;10.10;3.80;;;;;;;13.59;100.00;100136.50;5034708;28;20076;-67
2021/08/10 04:14:42;;;;;;;6.95;3.58;;;;;;;13.55;100.00;100137.69;5034903;28;20115;-67
2021/08/10 04:17:09;;;;;;;5.70;3.30;;;;;;;13.49;100.00;100139.03;5035570;28;20525;-67
2021/08/10 04:19:45;;;;;;;5.90;3.88;;;;;;;13.46;100.00;100141.06;5035678;28;20435;-67
2021/08/10 04:22:13;;;;;;;7.43;4.00;;;;;;;13.46;100.00;100149.13;5050963;28;20390;-67
2021/08/10 04:24:40;;;;;;;8.88;3.70;;;;;;;13.45;100.00;100148.22;5055734;28;20052;-67
2021/08/10 04:27:07;;;;;;;8.60;3.90;;;;;;;13.49;100.00;100151.56;5055583;28;20378;-67
2021/08/10 04:29:34;;;;;;;6.18;3.50;;;;;;;13.42;100.00;100148.44;5055560;28;20056;-67
2021/08/10 04:32:00;;;;;;;9.18;3.78;;;;;;;13.44;100.00;100163.47;5055439;28;20346;-67
2021/08/10 04:34:27;;;;;;;6.00;3.60;;;;;;;13.46;100.00;100165.19;5055742;28;20064;-67
2021/08/10 04:36:54;;;;;;;5.15;3.30;;;;;;;13.50;100.00;100161.34;5055477;28;20048;-67
2021/08/10 04:39:23;;;;;;;7.55;3.65;;;;;;;13.44;100.00;100165.28;5055194;28;20060;-67
2021/08/10 04:41:50;;;;;;;5.80;3.63;;;;;;;13.42;100.00;100172.56;5055189;28;20052;-67
2021/08/10 04:44:17;;;;;;;6.80;3.90;;;;;;;13.43;100.00;100167.13;5055196;28;20049;-67
2021/08/10 04:46:47;;;;;;;6.88;4.13;;;;;;;13.44;100.00;100179.53;5046777;28;20041;-66
2021/08/10 04:49:14;;;;;;;9.85;3.65;;;;;;;13.49;100.00;100186.41;5034999;28;20439;-67
2021/08/10 04:51:41;;;;;;;7.70;4.07;;;;;;;13.44;100.00;100179.53;5034127;28;20380;-67
2021/08/10 04:54:10;;;;;;;6.85;3.45;;;;;;;13.48;100.00;100187.38;5017458;28;20053;-67
2021/08/10 04:56:37;;;;;;;9.43;3.65;;;;;;;13.48;100.00;100187.38;5034960;28;20045;-67
2021/08/10 04:59:04;;;;;;;7.30;4.30;;;;;;;13.12;100.00;100136.28;5024990;28;20053;-67
2021/08/10 05:01:33;;;;;;;12.32;4.18;;;;;;;13.54;100.00;100203.03;5054058;28;20407;-67
2021/08/10 05:04:01;;;;;;;7.88;4.20;;;;;;;13.60;100.00;100199.03;5044004;28;20362;-66
2021/08/10 05:06:27;;;;;;;7.63;3.78;;;;;;;13.61;100.00;100196.25;5056666;28;20423;-66
2021/08/10 05:08:54;;;;;;;7.65;3.97;;;;;;;13.65;100.00;100192.38;5060478;28;20049;-66
2021/08/10 05:11:20;;;;;;;10.65;3.90;;;;;;;13.67;100.00;100190.44;5036438;28;20060;-66
2021/08/10 05:13:47;;;;;;;7.53;3.45;;;;;;;13.69;100.00;100193.00;5054224;28;20053;-66
2021/08/10 05:16:14;;;;;;;7.75;3.22;;;;;;;13.70;100.00;100195.59;5054681;28;20098;-66
2021/08/10 05:18:40;;;;;;;8.60;3.80;;;;;;;13.73;100.00;100199.00;5049989;28;20339;-66
2021/08/10 05:21:07;;;;;;;7.00;3.90;;;;;;;13.69;100.00;100191.16;5040695;28;20049;-67
2021/08/10 05:23:35;;;;;;;6.00;3.35;;;;;;;13.83;100.00;100202.69;5037178;28;20053;-67
2021/08/10 05:26:01;;;;;;;7.03;3.47;;;;;;;13.83;100.00;100202.69;5054505;28;20098;-66
2021/08/10 05:28:28;;;;;;;7.15;3.85;;;;;;;13.86;100.00;100205.16;5033484;28;20085;-66
2021/08/10 05:31:01;;;;;;;6.78;3.70;;;;;;;13.88;100.00;100205.91;5035140;28;20045;-68
2021/08/10 05:33:43;;;;;;;6.32;3.60;;;;;;;13.81;100.00;100200.16;5033485;28;20439;-66
2021/08/10 05:36:10;;;;;;;5.50;3.38;;;;;;;13.74;100.00;100177.44;5034477;28;20053;-66
2021/08/10 05:38:36;;;;;;;4.65;3.15;;;;;;;13.91;100.00;100197.63;5034441;28;20045;-67
2021/08/10 05:41:03;;;;;;;9.30;3.60;;;;;;;14.05;100.00;100203.81;5034665;28;20049;-66
2021/08/10 05:43:30;;;;;;;7.65;3.67;;;;;;;14.13;100.00;100204.06;5034460;28;20080;-66
2021/08/10 05:45:57;;;;;;;9.65;3.47;;;;;;;14.22;100.00;100214.09;5031865;28;20058;-66
2021/08/10 05:48:23;;;;;;;10.18;3.33;;;;;;;14.26;100.00;100199.50;5033513;28;20049;-66
2021/08/10 05:50:50;;;;;;;7.10;3.42;;;;;;;14.31;100.00;100204.50;5033265;28;20096;-66
2021/08/10 05:53:17;;;;;;;4.32;3.15;;;;;;;14.41;100.00;100201.97;5034374;28;20061;-66
2021/08/10 05:55:44;;;;;;;8.90;3.60;;;;;;;14.46;100.00;100201.63;5034466;28;20060;-66
2021/08/10 05:58:10;;;;;;;5.05;3.17;;;;;;;14.35;100.00;100200.63;5034025;28;20095;-66
2021/08/10 06:00:37;;;;;;;8.05;3.28;;;;;;;14.43;100.00;100212.59;5014352;28;20069;-66
2021/08/10 06:03:04;;;;;;;7.30;3.97;;;;;;;14.40;100.00;100209.16;5018404;28;20053;-66
2021/08/10 06:05:31;;;;;;;7.60;3.78;;;;;;;14.44;100.00;100209.78;5014684;28;20052;-66
2021/08/10 06:07:58;;;;;;;7.30;3.67;;;;;;;14.47;100.00;100208.69;5019587;28;20050;-66
2021/08/10 06:10:25;;;;;;;8.30;3.15;;;;;;;14.55;100.00;100210.78;5022828;28;20046;-66
2021/08/10 06:12:52;;;;;;;8.35;3.22;;;;;;;14.66;100.00;100205.47;5018664;28;20053;-66
2021/08/10 06:15:19;;;;;;;6.57;3.38;;;;;;;14.83;100.00;100193.44;5024474;28;20104;-66
2021/08/10 06:17:46;;;;;;;6.60;3.05;;;;;;;15.00;100.00;100200.16;5017491;28;20053;-66
2021/08/10 06:20:13;;;;;;;6.40;3.35;;;;;;;15.08;100.00;100202.22;5018132;28;20386;-66
2021/08/10 06:22:39;;;;;;;6.65;3.53;;;;;;;15.14;100.00;100196.34;5036546;28;20057;-66
2021/08/10 06:25:07;;;;;;;6.65;3.30;;;;;;;15.05;100.00;100181.81;5036762;28;20064;-73
2021/08/10 06:27:33;;;;;;;8.10;3.55;;;;;;;15.10;100.00;100204.78;5052430;28;20714;-69
2021/08/10 06:30:00;;;;;;;5.28;2.85;;;;;;;15.02;100.00;100206.25;5037601;28;20140;-69
2021/08/10 06:32:27;;;;;;;5.00;2.90;;;;;;;15.09;100.00;100203.09;5037453;28;20394;-67
2021/08/10 06:34:53;;;;;;;8.10;2.90;;;;;;;15.15;100.00;100203.44;5052086;28;20127;-68
2021/08/10 06:37:20;;;;;;;5.68;2.70;;;;;;;15.17;100.00;100200.63;5036866;28;20049;-67
2021/08/10 06:39:47;;;;;;;8.13;3.70;;;;;;;15.18;100.00;100203.22;5052391;28;20439;-67
2021/08/10 06:42:18;;;;;;;4.75;3.17;;;;;;;15.25;100.00;100203.56;5036922;28;20057;-68
2021/08/10 06:44:45;;;;;;;4.60;2.83;;;;;;;15.31;100.00;100197.69;5036280;28;20076;-70
2021/08/10 06:47:12;;;;;;;6.40;2.92;;;;;;;15.40;100.00;100206.84;5037670;28;20050;-69
2021/08/10 06:49:39;;;;;;;9.13;3.00;;;;;;;15.46;100.00;100194.72;5036648;28;20049;-70
2021/08/10 06:52:07;;;;;;;7.47;2.85;;;;;;;15.63;100.00;100205.97;5036358;28;20355;-70
2021/08/10 06:54:34;;;;;;;5.75;2.90;;;;;;;15.64;100.00;100207.66;5036433;28;20099;-69
2021/08/10 06:57:05;;;;;;;8.05;2.65;;;;;;;15.70;100.00;100208.00;5036021;28;20080;-70
2021/08/10 06:59:33;;;;;;;6.57;2.80;;;;;;;15.75;100.00;100210.34;5036414;28;20068;-68
2021/08/10 07:02:00;;;;;;;4.38;2.42;;;;;;;15.78;100.00;100207.38;5036868;28;20061;-70
2021/08/10 07:04:27;;;;;;;7.25;2.70;;;;;;;15.64;100.00;100178.94;5036581;28;20051;-71
2021/08/10 07:06:54;;;;;;;5.05;2.80;;;;;;;15.88;100.00;100216.44;5035003;28;20107;-73
2021/08/10 07:09:22;;;;;;;5.22;2.30;;;;;;;15.87;100.00;100212.00;5036201;28;20343;-68
2021/08/10 07:11:49;;;;;;;4.15;2.35;;;;;;;15.92;100.00;100218.88;5035581;28;20049;-69
2021/08/10 07:14:16;;;;;;;5.80;2.30;;;;;;;15.94;100.00;100227.66;5051403;28;20049;-69
2021/08/10 07:16:44;;;;;;;8.55;2.70;;;;;;;15.91;100.00;100225.22;5042119;28;20446;-68
2021/08/10 07:19:13;;;;;;;4.28;2.35;;;;;;;16.02;100.00;100231.44;5036224;28;20133;-67
2021/08/10 07:21:40;;;;;;;3.67;2.38;;;;;;;15.96;100.00;100220.34;5024855;28;20054;-66
2021/08/10 07:24:07;;;;;;;5.30;2.00;;;;;;;16.00;100.00;100221.78;5051634;28;20095;-68
2021/08/10 07:26:34;;;;;;;7.90;2.85;;;;;;;16.04;100.00;100225.94;5037624;28;20049;-74
2021/08/10 07:29:02;;;;;;;8.10;2.85;;;;;;;15.97;100.00;100235.50;5056450;28;20049;-67
2021/08/10 07:31:28;;;;;;;4.43;2.20;;;;;;;15.93;100.00;100234.91;5055796;28;20400;-67
2021/08/10 07:33:55;;;;;;;8.63;2.47;;;;;;;15.86;100.00;100237.19;5037809;28;20041;-71
2021/08/10 07:36:22;;;;;;;4.47;2.55;;;;;;;15.94;100.00;100233.06;5051060;28;20095;-66
2021/08/10 07:38:48;;;;;;;4.38;2.30;;;;;;;15.96;100.00;100244.56;5038741;28;20048;-68
2021/08/10 07:41:15;;;;;;;7.45;2.70;;;;;;;15.88;100.00;100237.09;5055155;28;20098;-68
2021/08/10 07:43:41;;;;;;;4.07;2.20;;;;;;;15.84;100.00;100239.19;5020408;28;20053;-71
2021/08/10 07:46:09;;;;;;;5.40;3.03;;;;;;;15.85;100.00;100235.50;5037005;28;20060;-70
2021/08/10 07:48:36;;;;;;;7.05;3.28;;;;;;;15.90;100.00;100245.88;5046365;28;20456;-68
2021/08/10 07:51:03;;;;;;;6.95;2.83;;;;;;;15.93;100.00;100244.81;5035126;28;20053;-66
2021/08/10 07:53:30;;;;;;;9.32;3.10;;;;;;;15.93;100.00;100245.69;5050069;28;20053;-68
2021/08/10 07:55:56;;;;;;;5.85;3.15;;;;;;;15.95;100.00;100243.72;5056045;28;20061;-69
2021/08/10 07:58:24;;;;;;;4.43;2.63;;;;;;;16.08;100.00;100237.31;5042425;28;20045;-67
2021/08/10 08:00:50;;;;;;;8.43;2.75;;;;;;;15.98;100.00;100227.31;5056732;28;20331;-68
2021/08/10 08:03:17;;;;;;;8.05;2.72;;;;;;;16.08;100.00;100238.16;5059145;28;20063;-68
2021/08/10 08:05:44;;;;;;;7.15;2.75;;;;;;;16.14;100.00;100253.78;5065921;28;20045;-68
2021/08/10 08:08:11;;;;;;;7.22;2.75;;;;;;;16.16;100.00;100245.59;5034639;28;20041;-69
2021/08/10 08:10:38;;;;;;;8.18;2.78;;;;;;;16.23;100.00;100245.94;5055638;28;20053;-68
2021/08/10 08:13:21;;;;;;;8.13;2.78;;;;;;;16.22;100.00;100253.16;5040252;28;20136;-69
2021/08/10 08:15:48;;;;;;;4.28;2.65;;;;;;;16.25;100.00;100258.28;5037274;28;20049;-70
2021/08/10 08:18:15;;;;;;;8.50;3.10;;;;;;;16.22;100.00;100255.00;5055224;28;20124;-75
2021/08/10 08:20:41;;;;;;;7.03;3.10;;;;;;;16.22;100.00;100234.31;5027950;28;20049;-72
2021/08/10 08:23:08;;;;;;;7.65;3.35;;;;;;;16.35;100.00;100234.13;5048459;28;20057;-72
2021/08/10 08:25:35;;;;;;;6.05;2.88;;;;;;;16.34;100.00;100232.41;5055789;28;20040;-71
2021/08/10 08:28:08;;;;;;;4.32;2.70;;;;;;;16.48;100.00;100249.25;5056827;28;20061;-72
2021/08/10 08:30:38;;;;;;;5.40;3.15;;;;;;;16.51;100.00;100243.63;5052833;28;20399;-73
2021/08/10 08:33:09;;;;;;;;;;;;;;;16.58;100.00;100249.31;5037613;28;20060;-75
2021/08/10 08:35:39;;;;;;;9.93;3.30;;;;;;;16.62;100.00;100235.44;5038934;28;19936;-72
2021/08/10 08:38:07;;;;;;;8.35;3.00;;;;;;;16.78;100.00;100251.16;5037696;28;20099;-71
2021/08/10 08:40:37;;;;;;;6.03;3.15;;;;;;;16.81;100.00;100255.44;5055847;28;20044;-73
2021/08/10 08:43:04;;;;;;;5.13;3.10;;;;;;;16.79;100.00;100250.16;5055051;28;20049;-72
2021/08/10 08:45:32;;;;;;;5.53;3.10;;;;;;;16.75;100.00;100256.84;5054937;28;20060;-74
2021/08/10 08:48:02;;;;;;;7.85;3.40;;;;;;;16.76;100.00;100263.94;5055067;28;20056;-72
2021/08/10 08:50:33;;;;;;;6.78;3.30;;;;;;;16.71;100.00;100252.69;5055068;28;20180;-74
2021/08/10 08:53:03;;;;;;;6.10;3.67;;;;;;;16.75;100.00;100240.66;5032058;28;20061;-77
2021/08/10 08:55:30;;;;;;;7.90;3.30;;;;;;;16.87;100.00;100243.25;5054366;28;20045;-73
2021/08/10 08:57:56;;;;;;;8.38;3.90;;;;;;;16.85;100.00;100243.41;5054733;28;20277;-71
2021/08/10 09:00:24;;;;;;;6.90;3.90;;;;;;;16.81;99.63;100240.13;5053773;28;20044;-69
2021/08/10 09:02:51;;;;;;;9.05;3.65;;;;;;;16.84;100.00;100239.03;5054338;28;20378;-72
2021/08/10 09:05:18;;;;;;;7.90;3.70;;;;;;;16.75;100.00;100218.22;5055822;28;20076;-71
2021/08/10 09:07:45;;;;;;;12.68;4.22;;;;;;;16.85;100.00;100243.41;5056854;28;20045;-69
2021/08/10 09:10:14;;;;;;;7.15;3.20;;;;;;;16.78;100.00;100240.38;5057025;28;20045;-76
2021/08/10 09:12:42;;;;;;;6.57;3.70;;;;;;;16.91;100.00;100242.03;5048917;28;20080;-72
2021/08/10 09:15:10;;;;;;;8.15;3.90;;;;;;;16.73;100.00;100204.91;5051083;28;20052;-69
2021/08/10 09:17:47;;;;;;;5.18;3.30;;;;;;;16.88;100.00;100218.88;5053308;28;20110;-69
2021/08/10 09:20:21;;;;;;;11.35;4.07;;;;;;;16.84;100.00;100201.28;5053555;28;20087;-70
2021/08/10 09:22:55;;;;;;;7.45;4.18;;;;;;;16.77;100.00;100213.59;5053858;28;20041;-68
2021/08/10 09:25:22;;;;;;;9.35;3.95;;;;;;;16.78;100.00;100215.28;5057291;28;20044;-72
2021/08/10 09:27:49;;;;;;;7.07;3.90;;;;;;;16.78;100.00;100215.28;5052765;28;20084;-73
2021/08/10 09:30:24;;;;;;;6.78;3.45;;;;;;;16.88;100.00;100208.09;5054224;28;20049;-73
2021/08/10 09:32:51;;;;;;;7.05;3.35;;;;;;;16.96;100.00;100220.91;5053131;28;20056;-70
2021/08/10 09:35:23;;;;;;;4.60;3.10;;;;;;;17.07;100.00;100220.00;5053636;28;20095;-76
2021/08/10 09:38:04;;;;;;;8.35;3.33;;;;;;;17.12;100.00;100198.03;5054311;28;20060;-66
2021/08/10 09:40:39;;;;;;;4.80;3.25;;;;;;;17.49;99.23;100236.06;5052731;28;20041;-68
2021/08/10 09:43:25;;;;;;;10.65;3.55;;;;;;;17.74;98.79;100228.47;5053901;28;20060;-68
2021/08/10 09:46:19;;;;;;;7.18;3.25;;;;;;;17.74;91.98;100241.09;5034309;28;20081;-76
2021/08/10 09:48:50;;;;;;;5.75;3.28;;;;;;;17.70;94.52;100235.13;5034896;28;20053;-66
2021/08/10 09:51:24;;;;;;;5.95;2.55;;;;;;;17.67;93.83;100230.03;5045307;28;20048;-67
2021/08/10 09:54:07;;;;;;;5.53;2.80;;;;;;;17.78;94.79;100248.78;5052946;28;20068;-67
2021/08/10 09:56:55;;;;;;;3.85;2.80;;;;;;;17.82;95.86;100248.53;5053108;28;20106;-66
2021/08/10 09:59:25;;;;;;;7.63;3.55;;;;;;;17.81;96.25;100236.84;5035870;28;20045;-69
2021/08/10 10:01:55;;;;;;;6.53;3.20;;;;;;;17.75;95.95;100242.81;5053714;28;20111;-67
2021/08/10 10:04:30;;;;;;;6.82;2.72;;;;;;;17.69;95.49;100241.53;5052431;28;20381;-69
2021/08/10 10:07:07;;;;;;;7.97;3.63;;;;;;;17.66;96.27;100244.50;5053956;28;20131;-66
2021/08/10 10:09:34;;;;;;;8.90;3.63;;;;;;;17.55;95.17;100241.91;5053584;28;20429;-68
2021/08/10 10:12:02;;;;;;;6.25;3.42;;;;;;;17.55;97.54;100225.72;5051491;28;20102;-69
2021/08/10 10:14:29;;;;;;;8.55;3.75;;;;;;;17.68;95.24;100242.53;5052161;28;20053;-71
2021/08/10 10:16:57;;;;;;;6.70;3.08;;;;;;;17.77;94.52;100232.75;5053693;28;20056;-69
2021/08/10 10:19:25;;;;;;;4.47;2.95;;;;;;;18.02;94.05;100239.44;5036304;28;20103;-66
2021/08/10 10:21:53;;;;;;;3.72;2.70;;;;;;;18.16;94.22;100237.38;5054362;28;20044;-66
2021/08/10 10:24:21;;;;;;;5.80;3.33;;;;;;;18.12;93.06;100241.34;5036172;28;20504;-69
2021/08/10 10:26:59;;;;;;;6.78;3.50;;;;;;;17.91;94.00;100236.88;5036382;28;20431;-66
2021/08/10 10:29:27;;;;;;;7.10;3.90;;;;;;;17.83;94.44;100239.41;5054274;28;20052;-66
2021/08/10 10:31:55;;;;;;;6.00;3.03;;;;;;;17.76;94.40;100248.06;5054233;28;20100;-66
2021/08/10 10:34:22;;;;;;;5.22;3.08;;;;;;;17.96;93.36;100228.34;5053947;28;20049;-66
2021/08/10 10:36:50;;;;;;;4.63;3.33;;;;;;;18.28;92.48;100233.53;5053161;28;20049;-67
2021/08/10 10:39:37;;;;;;;6.70;3.35;;;;;;;18.44;93.55;100232.09;5053861;28;20427;-71
2021/08/10 10:42:07;;;;;;;5.30;3.58;;;;;;;18.48;90.04;100233.53;5053966;28;20049;-66
2021/08/10 10:44:39;;;;;;;9.73;3.38;;;;;;;18.32;89.68;100245.75;5053970;28;20126;-71
2021/08/10 10:47:24;;;;;;;6.28;3.28;;;;;;;18.21;90.81;100234.22;5054031;28;20439;-66
2021/08/10 10:49:57;;;;;;;6.60;3.58;;;;;;;18.18;92.15;100233.53;5053754;28;20052;-68
2021/08/10 10:52:25;;;;;;;11.52;3.58;;;;;;;18.21;93.67;100232.41;5053511;28;20053;-65
2021/08/10 10:54:53;;;;;;;10.90;3.45;;;;;;;18.24;91.46;100228.56;5035877;28;20446;-69
2021/08/10 10:57:46;;;;;;;12.60;3.42;;;;;;;18.50;93.78;100231.53;5057450;28;20057;-72
2021/08/10 11:00:17;;;;;;;6.80;3.10;;;;;;;18.78;91.50;100231.63;5054751;28;20064;-71
2021/08/10 11:03:11;;;;;;;6.53;2.90;;;;;;;19.06;90.00;100222.75;5036258;28;20045;-70
2021/08/10 11:05:39;;;;;;;6.88;3.08;;;;;;;19.45;89.32;100225.28;5038520;28;20084;-71
2021/08/10 11:08:06;;;;;;;8.55;3.28;;;;;;;19.83;86.69;100222.50;5037542;28;20419;-70
2021/08/10 11:10:37;;;;;;;6.30;3.15;;;;;;;20.22;80.70;100226.81;5045343;28;20312;-71
2021/08/10 11:13:25;;;;;;;6.68;2.50;;;;;;;20.54;81.52;100216.41;5055751;28;20048;-72
2021/08/10 11:15:52;;;;;;;6.68;3.00;;;;;;;20.75;79.47;100232.31;5059413;28;20350;-68
2021/08/10 11:18:21;;;;;;;5.13;2.80;;;;;;;20.76;79.65;100221.31;5065027;28;20093;-68
2021/08/10 11:20:50;;;;;;;7.05;3.00;;;;;;;20.74;78.89;100217.91;5068162;28;20064;-70
2021/08/10 11:23:16;;;;;;;4.78;2.63;;;;;;;20.60;78.95;100219.31;5040823;28;20049;-68
2021/08/10 11:25:43;;;;;;;5.22;2.63;;;;;;;20.06;78.89;100201.25;5056092;28;20118;-69
2021/08/10 11:28:30;;;;;;;4.45;2.50;;;;;;;20.15;80.29;100207.59;5054921;28;20053;-71
2021/08/10 11:31:02;;;;;;;3.85;3.00;;;;;;;19.87;81.33;100214.94;5053383;28;20465;-69